FDX1125 WIMM-WMKP
Flight info
| Callsign | FDX1125 |
|---|---|
| Flight time | 0h 29m |
| Altitude | 28000 |
| Route | GOTLA G468 GUNIP MADUM1F |
| Aircraft | A306/H-SDE3FGHIRWY/LB1 |
Departure
| Time | 2026-05-09 02:26 |
|---|---|
| Airport | Kualanamu International Airport (WIMM) |
Arrival
| Time | 2026-05-09 02:56 |
|---|---|
| Airport | Penang International Airport (WMKP) |
| Time | Latitude | Longitude | Altitude | Speed | Heading |
|---|---|---|---|---|---|
| 2026-05-09 01:11 | 3.62738 | 98.86563 | 34 ft | 0 kts | 162° |
| 2026-05-09 02:00 | 3.62740 | 98.86562 | 34 ft | 3 kts | 162° |
| 2026-05-09 02:00 | 3.62765 | 98.86554 | 34 ft | 4 kts | 160° |
| 2026-05-09 02:01 | 3.62788 | 98.86546 | 32 ft | 2 kts | 162° |
| 2026-05-09 02:01 | 3.62809 | 98.86544 | 33 ft | 4 kts | 219° |
| 2026-05-09 02:01 | 3.62828 | 98.86563 | 30 ft | 3 kts | 224° |
| 2026-05-09 02:01 | 3.62823 | 98.86558 | 31 ft | 4 kts | 225° |
| 2026-05-09 02:02 | 3.62804 | 98.86539 | 33 ft | 4 kts | 227° |
| 2026-05-09 02:02 | 3.62785 | 98.86519 | 33 ft | 4 kts | 224° |
| 2026-05-09 02:02 | 3.62777 | 98.86512 | 34 ft | 0 kts | 223° |
| 2026-05-09 02:15 | 3.62774 | 98.86509 | 34 ft | 2 kts | 223° |
| 2026-05-09 02:15 | 3.62760 | 98.86496 | 13 ft | 4 kts | 223° |
| 2026-05-09 02:15 | 3.62740 | 98.86476 | 39 ft | 4 kts | 223° |
| 2026-05-09 02:15 | 3.62723 | 98.86455 | 34 ft | 3 kts | 250° |
| 2026-05-09 02:16 | 3.62725 | 98.86434 | 34 ft | 4 kts | 285° |
| 2026-05-09 02:16 | 3.62752 | 98.86400 | 34 ft | 7 kts | 313° |
| 2026-05-09 02:16 | 3.62774 | 98.86377 | 34 ft | 7 kts | 310° |
| 2026-05-09 02:16 | 3.62789 | 98.86322 | 35 ft | 8 kts | 257° |
| 2026-05-09 02:17 | 3.62748 | 98.86276 | 35 ft | 11 kts | 223° |
| 2026-05-09 02:17 | 3.62694 | 98.86222 | 34 ft | 11 kts | 225° |
| 2026-05-09 02:17 | 3.62640 | 98.86168 | 35 ft | 11 kts | 225° |
| 2026-05-09 02:17 | 3.62586 | 98.86114 | 35 ft | 11 kts | 225° |
| 2026-05-09 02:18 | 3.62531 | 98.86062 | 34 ft | 10 kts | 225° |
| 2026-05-09 02:18 | 3.62508 | 98.86005 | 34 ft | 9 kts | 264° |
| 2026-05-09 02:18 | 3.62526 | 98.85947 | 32 ft | 11 kts | 310° |
| 2026-05-09 02:18 | 3.62601 | 98.85915 | 34 ft | 12 kts | 4° |
| 2026-05-09 02:19 | 3.62690 | 98.85969 | 36 ft | 18 kts | 43° |
| 2026-05-09 02:19 | 3.62800 | 98.86073 | 36 ft | 24 kts | 45° |
| 2026-05-09 02:19 | 3.62916 | 98.86192 | 36 ft | 23 kts | 46° |
| 2026-05-09 02:19 | 3.63033 | 98.86306 | 35 ft | 24 kts | 44° |
| 2026-05-09 02:20 | 3.63152 | 98.86421 | 34 ft | 24 kts | 44° |
| 2026-05-09 02:20 | 3.63267 | 98.86538 | 33 ft | 24 kts | 46° |
| 2026-05-09 02:20 | 3.63381 | 98.86658 | 33 ft | 23 kts | 46° |
| 2026-05-09 02:20 | 3.63494 | 98.86771 | 34 ft | 23 kts | 43° |
| 2026-05-09 02:21 | 3.63621 | 98.86891 | 35 ft | 27 kts | 45° |
| 2026-05-09 02:21 | 3.63762 | 98.87032 | 35 ft | 30 kts | 46° |
| 2026-05-09 02:21 | 3.63907 | 98.87175 | 35 ft | 29 kts | 44° |
| 2026-05-09 02:21 | 3.64037 | 98.87329 | 33 ft | 29 kts | 55° |
| 2026-05-09 02:22 | 3.64110 | 98.87515 | 32 ft | 29 kts | 76° |
| 2026-05-09 02:22 | 3.64183 | 98.87695 | 33 ft | 28 kts | 55° |
| 2026-05-09 02:22 | 3.64308 | 98.87837 | 33 ft | 27 kts | 44° |
| 2026-05-09 02:22 | 3.64440 | 98.87964 | 32 ft | 26 kts | 43° |
| 2026-05-09 02:23 | 3.64571 | 98.88093 | 33 ft | 26 kts | 46° |
| 2026-05-09 02:23 | 3.64698 | 98.88219 | 33 ft | 26 kts | 44° |
| 2026-05-09 02:23 | 3.64785 | 98.88305 | 33 ft | 11 kts | 45° |
| 2026-05-09 02:23 | 3.64827 | 98.88339 | 30 ft | 6 kts | 24° |
| 2026-05-09 02:24 | 3.64844 | 98.88342 | 33 ft | 0 kts | 6° |
| 2026-05-09 02:24 | 3.64849 | 98.88342 | 33 ft | 1 kts | 4° |
| 2026-05-09 02:24 | 3.64862 | 98.88341 | 32 ft | 3 kts | 349° |
| 2026-05-09 02:24 | 3.64894 | 98.88320 | 32 ft | 8 kts | 320° |
| 2026-05-09 02:25 | 3.64933 | 98.88271 | 32 ft | 10 kts | 294° |
| 2026-05-09 02:25 | 3.64925 | 98.88195 | 32 ft | 11 kts | 241° |
| 2026-05-09 02:25 | 3.64905 | 98.88170 | 34 ft | 1 kts | 226° |
| 2026-05-09 02:25 | 3.64835 | 98.88099 | 34 ft | 45 kts | 225° |
| 2026-05-09 02:26 | 3.64429 | 98.87694 | 34 ft | 115 kts | 225° |
| 2026-05-09 02:26 | 3.63710 | 98.86977 | 134 ft | 168 kts | 225° |
| 2026-05-09 02:26 | 3.62907 | 98.86127 | 1047 ft | 168 kts | 229° |
| 2026-05-09 02:26 | 3.62171 | 98.85261 | 2126 ft | 160 kts | 229° |
| 2026-05-09 02:27 | 3.61380 | 98.84376 | 2694 ft | 187 kts | 229° |
| 2026-05-09 02:27 | 3.60475 | 98.83286 | 3241 ft | 217 kts | 237° |
| 2026-05-09 02:27 | 3.60087 | 98.81733 | 3623 ft | 250 kts | 276° |
| 2026-05-09 02:27 | 3.60810 | 98.80109 | 4392 ft | 265 kts | 310° |
| 2026-05-09 02:28 | 3.62016 | 98.78683 | 5367 ft | 272 kts | 307° |
| 2026-05-09 02:28 | 3.63059 | 98.77078 | 6403 ft | 278 kts | 299° |
| 2026-05-09 02:28 | 3.63928 | 98.75326 | 7387 ft | 284 kts | 294° |
| 2026-05-09 02:28 | 3.64679 | 98.73475 | 8389 ft | 290 kts | 290° |
| 2026-05-09 02:29 | 3.65355 | 98.71584 | 9427 ft | 295 kts | 288° |
| 2026-05-09 02:29 | 3.66208 | 98.69676 | 10380 ft | 303 kts | 304° |
| 2026-05-09 02:29 | 3.67841 | 98.68246 | 10855 ft | 327 kts | 333° |
| 2026-05-09 02:29 | 3.70099 | 98.67673 | 11189 ft | 348 kts | 359° |
| 2026-05-09 02:30 | 3.72525 | 98.68135 | 11505 ft | 366 kts | 23° |
| 2026-05-09 02:30 | 3.74666 | 98.69579 | 11811 ft | 381 kts | 46° |
| 2026-05-09 02:30 | 3.76152 | 98.71798 | 12231 ft | 389 kts | 68° |
| 2026-05-09 02:30 | 3.76739 | 98.74444 | 12770 ft | 393 kts | 88° |
| 2026-05-09 02:31 | 3.76578 | 98.77183 | 13355 ft | 397 kts | 94° |
| 2026-05-09 02:31 | 3.76756 | 98.79955 | 13898 ft | 403 kts | 82° |
| 2026-05-09 02:31 | 3.77399 | 98.82699 | 14437 ft | 407 kts | 74° |
| 2026-05-09 02:31 | 3.78340 | 98.85381 | 14959 ft | 410 kts | 70° |
| 2026-05-09 02:32 | 3.79360 | 98.88060 | 15466 ft | 413 kts | 70° |
| 2026-05-09 02:32 | 3.80401 | 98.90747 | 15813 ft | 415 kts | 70° |
| 2026-05-09 02:32 | 3.81488 | 98.93421 | 15904 ft | 415 kts | 69° |
| 2026-05-09 02:32 | 3.82610 | 98.96090 | 15914 ft | 416 kts | 68° |
| 2026-05-09 02:33 | 3.83753 | 98.98759 | 15913 ft | 417 kts | 68° |
| 2026-05-09 02:33 | 3.84910 | 99.01434 | 16205 ft | 420 kts | 68° |
| 2026-05-09 02:33 | 3.86078 | 99.04121 | 16767 ft | 421 kts | 68° |
| 2026-05-09 02:33 | 3.87253 | 99.06815 | 17281 ft | 423 kts | 68° |
| 2026-05-09 02:34 | 3.88433 | 99.09518 | 17751 ft | 425 kts | 68° |
| 2026-05-09 02:34 | 3.89693 | 99.12211 | 18177 ft | 429 kts | 63° |
| 2026-05-09 02:34 | 3.91400 | 99.14683 | 18564 ft | 433 kts | 53° |
| 2026-05-09 02:34 | 3.93335 | 99.17006 | 18939 ft | 436 kts | 51° |
| 2026-05-09 02:35 | 3.95308 | 99.19315 | 19300 ft | 437 kts | 51° |
| 2026-05-09 02:35 | 3.97290 | 99.21636 | 19652 ft | 439 kts | 51° |
| 2026-05-09 02:35 | 3.99274 | 99.23965 | 19983 ft | 441 kts | 51° |
| 2026-05-09 02:35 | 4.01238 | 99.26277 | 20294 ft | 442 kts | 51° |
| 2026-05-09 02:36 | 4.03236 | 99.28624 | 20617 ft | 444 kts | 51° |
| 2026-05-09 02:36 | 4.05445 | 99.30800 | 20907 ft | 448 kts | 41° |
| 2026-05-09 02:36 | 4.08106 | 99.32448 | 21225 ft | 453 kts | 27° |
| 2026-05-09 02:36 | 4.11131 | 99.33389 | 21528 ft | 459 kts | 12° |
| 2026-05-09 02:37 | 4.14327 | 99.33605 | 21825 ft | 463 kts | 2° |
| 2026-05-09 02:37 | 4.17554 | 99.33545 | 22095 ft | 465 kts | 0° |
| 2026-05-09 02:37 | 4.20794 | 99.33452 | 22355 ft | 467 kts | 0° |
| 2026-05-09 02:37 | 4.24046 | 99.33486 | 22598 ft | 467 kts | 6° |
| 2026-05-09 02:38 | 4.27249 | 99.33990 | 22853 ft | 466 kts | 14° |
| 2026-05-09 02:38 | 4.30294 | 99.35055 | 23069 ft | 464 kts | 29° |
| 2026-05-09 02:38 | 4.32927 | 99.36893 | 23335 ft | 461 kts | 42° |
| 2026-05-09 02:38 | 4.35286 | 99.39066 | 23546 ft | 461 kts | 45° |
| 2026-05-09 02:39 | 4.37601 | 99.41297 | 23725 ft | 463 kts | 46° |
| 2026-05-09 02:39 | 4.39922 | 99.43540 | 23870 ft | 464 kts | 45° |
| 2026-05-09 02:39 | 4.42251 | 99.45786 | 23919 ft | 464 kts | 45° |
| 2026-05-09 02:39 | 4.44579 | 99.48027 | 23918 ft | 465 kts | 45° |
| 2026-05-09 02:40 | 4.46912 | 99.50270 | 23905 ft | 465 kts | 45° |
| 2026-05-09 02:40 | 4.49229 | 99.52495 | 23489 ft | 457 kts | 45° |
| 2026-05-09 02:40 | 4.51522 | 99.54670 | 22309 ft | 453 kts | 45° |
| 2026-05-09 02:40 | 4.53820 | 99.56833 | 21065 ft | 452 kts | 45° |
| 2026-05-09 02:41 | 4.56101 | 99.58975 | 20088 ft | 445 kts | 45° |
| 2026-05-09 02:41 | 4.58338 | 99.61077 | 19414 ft | 434 kts | 45° |
| 2026-05-09 02:41 | 4.60509 | 99.63117 | 18590 ft | 425 kts | 45° |
| 2026-05-09 02:41 | 4.62675 | 99.65156 | 17215 ft | 430 kts | 45° |
| 2026-05-09 02:42 | 4.64856 | 99.67210 | 16284 ft | 426 kts | 45° |
| 2026-05-09 02:42 | 4.66976 | 99.69204 | 15763 ft | 410 kts | 45° |
| 2026-05-09 02:42 | 4.69045 | 99.71150 | 14723 ft | 409 kts | 45° |
| 2026-05-09 02:42 | 4.71137 | 99.73121 | 13513 ft | 415 kts | 44° |
| 2026-05-09 02:43 | 4.73196 | 99.75059 | 12822 ft | 391 kts | 44° |
| 2026-05-09 02:43 | 4.75073 | 99.76823 | 12774 ft | 350 kts | 44° |
| 2026-05-09 02:43 | 4.76763 | 99.78411 | 12729 ft | 317 kts | 44° |
| 2026-05-09 02:43 | 4.78316 | 99.79872 | 12466 ft | 297 kts | 45° |
| 2026-05-09 02:44 | 4.79775 | 99.81247 | 12206 ft | 280 kts | 45° |
| 2026-05-09 02:44 | 4.81157 | 99.82550 | 11993 ft | 265 kts | 45° |
| 2026-05-09 02:44 | 4.82465 | 99.83783 | 11791 ft | 252 kts | 45° |
| 2026-05-09 02:44 | 4.83719 | 99.84966 | 11534 ft | 247 kts | 45° |
| 2026-05-09 02:45 | 4.84993 | 99.86169 | 10925 ft | 257 kts | 45° |
| 2026-05-09 02:45 | 4.86306 | 99.87408 | 10412 ft | 261 kts | 44° |
| 2026-05-09 02:45 | 4.87628 | 99.88654 | 9980 ft | 261 kts | 44° |
| 2026-05-09 02:45 | 4.88946 | 99.89895 | 9547 ft | 259 kts | 44° |
| 2026-05-09 02:46 | 4.90251 | 99.91124 | 9111 ft | 257 kts | 44° |
| 2026-05-09 02:46 | 4.91548 | 99.92346 | 8677 ft | 255 kts | 44° |
| 2026-05-09 02:46 | 4.92823 | 99.93548 | 8306 ft | 254 kts | 44° |
| 2026-05-09 02:46 | 4.94126 | 99.94775 | 7948 ft | 253 kts | 44° |
| 2026-05-09 02:47 | 4.95401 | 99.95977 | 7603 ft | 251 kts | 44° |
| 2026-05-09 02:47 | 4.96652 | 99.97155 | 7268 ft | 249 kts | 44° |
| 2026-05-09 02:47 | 4.97914 | 99.98344 | 6908 ft | 248 kts | 44° |
| 2026-05-09 02:47 | 4.99168 | 99.99527 | 6562 ft | 246 kts | 44° |
| 2026-05-09 02:48 | 5.00414 | 100.00700 | 6178 ft | 245 kts | 44° |
| 2026-05-09 02:48 | 5.01651 | 100.01866 | 5776 ft | 244 kts | 44° |
| 2026-05-09 02:48 | 5.02888 | 100.03032 | 5402 ft | 244 kts | 44° |
| 2026-05-09 02:48 | 5.04122 | 100.04195 | 5085 ft | 243 kts | 44° |
| 2026-05-09 02:49 | 5.05336 | 100.05340 | 4829 ft | 236 kts | 44° |
| 2026-05-09 02:49 | 5.06520 | 100.06455 | 4535 ft | 231 kts | 44° |
| 2026-05-09 02:49 | 5.07689 | 100.07557 | 4173 ft | 230 kts | 44° |
| 2026-05-09 02:49 | 5.08851 | 100.08653 | 3830 ft | 229 kts | 44° |
| 2026-05-09 02:50 | 5.10007 | 100.09743 | 3500 ft | 228 kts | 44° |
| 2026-05-09 02:50 | 5.11171 | 100.10815 | 3183 ft | 226 kts | 43° |
| 2026-05-09 02:50 | 5.12304 | 100.11844 | 3103 ft | 212 kts | 43° |
| 2026-05-09 02:50 | 5.13359 | 100.12804 | 2969 ft | 198 kts | 43° |
| 2026-05-09 02:51 | 5.14359 | 100.13717 | 2749 ft | 192 kts | 43° |
| 2026-05-09 02:51 | 5.15335 | 100.14608 | 2466 ft | 189 kts | 43° |
| 2026-05-09 02:51 | 5.16288 | 100.15477 | 2320 ft | 180 kts | 43° |
| 2026-05-09 02:51 | 5.17190 | 100.16299 | 2161 ft | 172 kts | 43° |
| 2026-05-09 02:52 | 5.18066 | 100.17096 | 1947 ft | 168 kts | 43° |
| 2026-05-09 02:52 | 5.18918 | 100.17870 | 1900 ft | 165 kts | 43° |
| 2026-05-09 02:52 | 5.19775 | 100.18650 | 1891 ft | 167 kts | 43° |
| 2026-05-09 02:52 | 5.20638 | 100.19434 | 1882 ft | 168 kts | 43° |
| 2026-05-09 02:53 | 5.21498 | 100.20216 | 1824 ft | 166 kts | 43° |
| 2026-05-09 02:53 | 5.22353 | 100.20994 | 1618 ft | 166 kts | 42° |
| 2026-05-09 02:53 | 5.23196 | 100.21761 | 1421 ft | 161 kts | 42° |
| 2026-05-09 02:53 | 5.24013 | 100.22505 | 1354 ft | 155 kts | 42° |
| 2026-05-09 02:54 | 5.24814 | 100.23234 | 912 ft | 155 kts | 42° |
| 2026-05-09 02:54 | 5.25553 | 100.23907 | 792 ft | 142 kts | 42° |
| 2026-05-09 02:54 | 5.26272 | 100.24561 | 744 ft | 137 kts | 42° |
| 2026-05-09 02:54 | 5.27004 | 100.25227 | 373 ft | 139 kts | 42° |
| 2026-05-09 02:55 | 5.27712 | 100.25860 | 313 ft | 137 kts | 41° |
| 2026-05-09 02:55 | 5.28414 | 100.26499 | 145 ft | 136 kts | 43° |
| 2026-05-09 02:55 | 5.29104 | 100.27129 | 41 ft | 127 kts | 42° |
| 2026-05-09 02:55 | 5.29672 | 100.27645 | 30 ft | 88 kts | 42° |
| 2026-05-09 02:56 | 5.30001 | 100.27948 | 31 ft | 42 kts | 41° |
| 2026-05-09 02:56 | 5.30116 | 100.28048 | 32 ft | 11 kts | 35° |
| 2026-05-09 02:56 | 5.30152 | 100.28042 | 30 ft | 4 kts | 309° |
| 2026-05-09 02:56 | 5.30171 | 100.28018 | 31 ft | 5 kts | 307° |
| 2026-05-09 02:57 | 5.30197 | 100.27983 | 30 ft | 7 kts | 307° |
| 2026-05-09 02:57 | 5.30229 | 100.27939 | 29 ft | 8 kts | 298° |
| 2026-05-09 02:57 | 5.30215 | 100.27892 | 29 ft | 7 kts | 232° |
| 2026-05-09 02:57 | 5.30177 | 100.27855 | 28 ft | 8 kts | 223° |
| 2026-05-09 02:58 | 5.30136 | 100.27817 | 29 ft | 8 kts | 223° |
| 2026-05-09 02:58 | 5.30096 | 100.27774 | 29 ft | 9 kts | 227° |
| 2026-05-09 02:58 | 5.30054 | 100.27729 | 29 ft | 9 kts | 225° |
| 2026-05-09 02:58 | 5.29989 | 100.27669 | 29 ft | 15 kts | 222° |
| 2026-05-09 02:59 | 5.29908 | 100.27595 | 29 ft | 16 kts | 222° |
| 2026-05-09 02:59 | 5.29822 | 100.27518 | 29 ft | 17 kts | 222° |
| 2026-05-09 02:59 | 5.29732 | 100.27437 | 29 ft | 18 kts | 221° |
| 2026-05-09 02:59 | 5.29638 | 100.27354 | 29 ft | 18 kts | 221° |
| 2026-05-09 03:00 | 5.29543 | 100.27267 | 29 ft | 19 kts | 223° |
| 2026-05-09 03:00 | 5.29444 | 100.27177 | 29 ft | 19 kts | 221° |
| 2026-05-09 03:00 | 5.29341 | 100.27084 | 29 ft | 20 kts | 224° |
| 2026-05-09 03:00 | 5.29239 | 100.26990 | 29 ft | 19 kts | 221° |
| 2026-05-09 03:01 | 5.29177 | 100.26945 | 30 ft | 9 kts | 192° |
| 2026-05-09 03:01 | 5.29131 | 100.26970 | 30 ft | 8 kts | 134° |
| 2026-05-09 03:01 | 5.29097 | 100.27009 | 31 ft | 7 kts | 131° |
| 2026-05-09 03:01 | 5.29065 | 100.27045 | 32 ft | 7 kts | 132° |
| 2026-05-09 03:02 | 5.29005 | 100.27071 | 32 ft | 11 kts | 175° |
| 2026-05-09 03:02 | 5.28924 | 100.27080 | 31 ft | 13 kts | 172° |
| 2026-05-09 03:02 | 5.28843 | 100.27093 | 30 ft | 9 kts | 169° |
| 2026-05-09 03:02 | 5.28804 | 100.27132 | 29 ft | 8 kts | 109° |
| 2026-05-09 03:03 | 5.28794 | 100.27170 | 29 ft | 5 kts | 119° |
| 2026-05-09 03:03 | 5.28780 | 100.27186 | 29 ft | 3 kts | 134° |
| 2026-05-09 03:03 | 5.28768 | 100.27199 | 29 ft | 3 kts | 133° |
| 2026-05-09 03:03 | 5.28761 | 100.27206 | 29 ft | 0 kts | 133° |